Time;durP1;ratioP1;P1;durP2;ratioP2;P2;SDS_P1;SDS_P2;PMS_P1;PMS_P2;Temp;Humidity;BMP_temperature;BMP_pressure;BME280_temperature;BME280_humidity;BME280_pressure;Samples;Min_cycle;Max_cycle;Signal;HPM_P1;HPM_P2
2023/04/19 00:01:28;;;;;;;16.47;11.33;;;9.70;99.90;;;;;;5068733;28;20224;-73
2023/04/19 00:03:55;;;;;;;14.47;11.13;;;9.70;99.90;;;;;;5066968;28;20263;-73
2023/04/19 00:06:21;;;;;;;13.90;11.50;;;9.70;99.90;;;;;;5067003;28;20787;-73
2023/04/19 00:08:46;;;;;;;15.90;11.07;;;9.70;99.90;;;;;;5068378;28;20536;-73
2023/04/19 00:11:12;;;;;;;13.87;11.70;;;9.60;99.90;;;;;;5068453;28;20180;-73
2023/04/19 00:13:38;;;;;;;17.83;11.40;;;9.60;99.90;;;;;;5066923;28;20445;-74
2023/04/19 00:16:04;;;;;;;14.53;11.07;;;9.60;99.90;;;;;;5068889;28;20187;-72
2023/04/19 00:18:30;;;;;;;14.33;10.87;;;9.60;99.90;;;;;;5070496;28;20187;-73
2023/04/19 00:20:56;;;;;;;16.13;11.43;;;9.60;99.90;;;;;;5071820;28;20464;-72
2023/04/19 00:23:21;;;;;;;19.80;12.73;;;9.60;99.90;;;;;;5071939;28;20246;-73
2023/04/19 00:25:48;;;;;;;15.97;11.80;;;9.50;99.90;;;;;;5070465;28;20457;-71
2023/04/19 00:28:14;;;;;;;15.57;12.07;;;9.50;99.90;;;;;;5071643;28;20661;-73
2023/04/19 00:30:40;;;;;;;18.13;12.63;;;9.50;99.90;;;;;;5053303;28;20564;-73
2023/04/19 00:33:11;;;;;;;20.60;12.07;;;9.50;99.90;;;;;;5070160;28;20438;-73
2023/04/19 00:35:37;;;;;;;17.33;12.20;;;9.50;99.90;;;;;;5071446;28;20179;-73
2023/04/19 00:38:03;;;;;;;16.50;12.00;;;9.50;99.90;;;;;;5071370;28;20437;-73
2023/04/19 00:40:30;;;;;;;18.73;13.30;;;9.40;99.90;;;;;;5069649;28;20449;-74
2023/04/19 00:42:56;;;;;;;19.67;13.63;;;9.40;99.90;;;;;;5071246;28;20297;-73
2023/04/19 00:45:21;;;;;;;16.20;12.37;;;9.40;99.90;;;;;;5069967;28;20968;-73
2023/04/19 00:47:47;;;;;;;17.90;13.00;;;9.40;99.90;;;;;;5069764;28;20202;-73
2023/04/19 00:50:13;;;;;;;17.80;12.30;;;9.40;99.90;;;;;;5069663;28;20218;-73
2023/04/19 00:52:39;;;;;;;19.40;13.33;;;9.30;99.90;;;;;;5070979;28;20184;-73
2023/04/19 00:55:05;;;;;;;18.60;13.57;;;9.30;99.90;;;;;;5071107;28;20187;-73
2023/04/19 00:57:31;;;;;;;26.07;12.70;;;9.30;99.90;;;;;;5069564;28;20425;-73
2023/04/19 00:59:57;;;;;;;21.50;13.20;;;9.30;99.90;;;;;;5071058;28;20432;-73
2023/04/19 01:02:23;;;;;;;21.20;13.30;;;9.30;99.90;;;;;;5070846;28;20301;-73
2023/04/19 01:04:49;;;;;;;18.53;14.40;;;9.30;99.90;;;;;;5070808;28;20527;-73
2023/04/19 01:07:14;;;;;;;18.83;13.60;;;9.30;99.90;;;;;;5069494;28;20195;-73
2023/04/19 01:09:42;;;;;;;17.40;12.90;;;9.30;99.90;;;;;;5069247;28;20863;-73
2023/04/19 01:12:08;;;;;;;16.70;12.93;;;9.30;99.90;;;;;;5070793;28;20792;-73
2023/04/19 01:14:34;;;;;;;18.60;12.73;;;9.30;99.90;;;;;;5070659;28;20433;-73
2023/04/19 01:16:59;;;;;;;17.33;12.53;;;9.30;99.90;;;;;;5069115;28;20190;-73
2023/04/19 01:19:25;;;;;;;20.33;13.50;;;9.30;99.90;;;;;;5070576;28;20183;-73
2023/04/19 01:21:51;;;;;;;19.33;13.10;;;9.30;99.90;;;;;;5070649;28;20191;-73
2023/04/19 01:24:17;;;;;;;17.77;13.40;;;9.30;99.90;;;;;;5052338;28;20457;-74
2023/04/19 01:26:42;;;;;;;19.17;12.70;;;9.30;99.90;;;;;;5069350;28;20933;-73
2023/04/19 01:29:08;;;;;;;23.97;13.70;;;9.30;99.90;;;;;;5069422;28;20987;-73
2023/04/19 01:31:34;;;;;;;16.07;12.60;;;9.30;99.90;;;;;;5070580;28;20270;-73
2023/04/19 01:33:59;;;;;;;19.27;12.70;;;9.30;99.90;;;;;;5070407;28;20205;-73
2023/04/19 01:36:26;;;;;;;20.40;14.10;;;9.30;99.90;;;;;;5052081;28;20250;-73
2023/04/19 01:38:52;;;;;;;19.50;11.60;;;9.20;99.90;;;;;;5069038;28;20644;-73
2023/04/19 01:41:19;;;;;;;18.90;13.77;;;9.20;99.90;;;;;;5070348;28;20427;-73
2023/04/19 01:43:44;;;;;;;22.03;14.50;;;9.20;99.90;;;;;;5052370;28;20582;-73
2023/04/19 01:46:10;;;;;;;19.23;13.80;;;9.20;99.90;;;;;;5070364;28;20413;-73
2023/04/19 01:48:35;;;;;;;24.10;14.27;;;9.20;99.90;;;;;;5070254;28;20187;-73
2023/04/19 01:51:01;;;;;;;17.50;13.03;;;9.20;99.90;;;;;;5070063;28;20225;-74
2023/04/19 01:53:28;;;;;;;20.47;14.27;;;9.20;99.90;;;;;;5070250;28;20326;-74
2023/04/19 01:55:54;;;;;;;22.10;14.60;;;9.20;99.90;;;;;;5068750;28;20864;-74
2023/04/19 01:58:20;;;;;;;19.03;13.93;;;9.20;99.90;;;;;;5069093;28;20190;-73
2023/04/19 02:00:45;;;;;;;25.90;14.40;;;9.10;99.90;;;;;;5070356;28;20987;-73
2023/04/19 02:03:11;;;;;;;23.87;14.10;;;9.10;99.90;;;;;;5051928;28;20450;-72
2023/04/19 02:05:38;;;;;;;19.67;14.50;;;9.20;99.90;;;;;;5070021;28;20926;-71
2023/04/19 02:08:04;;;;;;;20.30;13.93;;;9.10;99.90;;;;;;5068453;28;20647;-73
2023/04/19 02:10:30;;;;;;;24.80;13.60;;;9.10;99.90;;;;;;5068138;28;20606;-73
2023/04/19 02:12:55;;;;;;;22.87;13.97;;;9.10;99.90;;;;;;5069651;28;20207;-73
2023/04/19 02:15:21;;;;;;;18.70;13.50;;;9.10;99.90;;;;;;5069523;28;20258;-71
2023/04/19 02:17:46;;;;;;;21.20;13.53;;;9.10;99.90;;;;;;5084990;28;20217;-72
2023/04/19 02:20:12;;;;;;;24.23;14.03;;;9.10;99.90;;;;;;5069409;28;20195;-73
2023/04/19 02:22:38;;;;;;;18.00;13.10;;;9.10;99.90;;;;;;5068009;28;20678;-73
2023/04/19 02:25:04;;;;;;;22.50;14.80;;;9.10;99.90;;;;;;5069523;28;20193;-73
2023/04/19 02:27:30;;;;;;;20.27;13.20;;;9.10;99.90;;;;;;5069465;28;20186;-72
2023/04/19 02:29:56;;;;;;;19.60;13.30;;;9.10;99.90;;;;;;5069224;28;20519;-72
2023/04/19 02:32:21;;;;;;;21.03;15.10;;;9.10;99.90;;;;;;5069342;28;20190;-72
2023/04/19 02:34:47;;;;;;;20.77;13.93;;;9.00;99.90;;;;;;5069288;28;20335;-73
2023/04/19 02:37:12;;;;;;;20.00;13.33;;;9.00;99.90;;;;;;5069241;28;20179;-72
2023/04/19 02:39:40;;;;;;;20.03;14.57;;;9.00;99.90;;;;;;5068788;28;20319;-72
2023/04/19 02:42:06;;;;;;;21.80;14.47;;;9.00;99.90;;;;;;5067901;28;20185;-72
2023/04/19 02:44:31;;;;;;;20.27;14.17;;;9.00;99.90;;;;;;5069015;28;21169;-72
2023/04/19 02:46:57;;;;;;;22.47;15.27;;;9.00;99.90;;;;;;5069098;28;20194;-72
2023/04/19 02:49:22;;;;;;;20.50;14.47;;;9.00;99.90;;;;;;5067335;28;20210;-73
2023/04/19 02:51:50;;;;;;;22.30;13.90;;;8.90;99.90;;;;;;5069120;28;20187;-73
2023/04/19 02:54:16;;;;;;;22.10;14.53;;;9.00;99.90;;;;;;5068957;28;20199;-73
2023/04/19 02:56:41;;;;;;;21.63;14.67;;;8.90;99.90;;;;;;5069037;28;21011;-73
2023/04/19 02:59:07;;;;;;;21.73;14.43;;;8.90;99.90;;;;;;5067437;28;20209;-73
2023/04/19 03:01:33;;;;;;;20.10;14.83;;;8.90;99.90;;;;;;5067540;28;20193;-73
2023/04/19 03:03:58;;;;;;;20.33;14.63;;;8.90;99.90;;;;;;5067576;28;20215;-73
2023/04/19 03:06:25;;;;;;;21.63;15.17;;;8.90;99.90;;;;;;5067701;28;20194;-72
2023/04/19 03:08:50;;;;;;;19.27;13.70;;;8.90;99.90;;;;;;5068858;28;20612;-72
2023/04/19 03:11:16;;;;;;;21.23;15.33;;;8.90;99.90;;;;;;5069074;28;20428;-72
2023/04/19 03:13:42;;;;;;;21.57;14.40;;;8.90;99.90;;;;;;5067830;28;20550;-72
2023/04/19 03:16:08;;;;;;;24.13;16.47;;;8.90;99.90;;;;;;5069255;28;20417;-72
2023/04/19 03:18:34;;;;;;;19.60;14.87;;;8.90;99.90;;;;;;5051178;28;20187;-72
2023/04/19 03:21:00;;;;;;;19.70;14.93;;;8.90;99.90;;;;;;5069356;28;20487;-71
2023/04/19 03:23:28;;;;;;;24.33;15.07;;;8.90;99.90;;;;;;5067986;28;20562;-72
2023/04/19 03:25:53;;;;;;;23.77;15.57;;;8.90;99.90;;;;;;5067807;28;20514;-72
2023/04/19 03:28:19;;;;;;;24.00;16.27;;;8.80;99.90;;;;;;5068859;28;20513;-72
2023/04/19 03:30:45;;;;;;;21.57;14.70;;;8.80;99.90;;;;;;5068772;28;20222;-72
2023/04/19 03:33:11;;;;;;;20.83;15.67;;;8.80;99.90;;;;;;5068947;28;20241;-72
2023/04/19 03:35:37;;;;;;;22.20;14.90;;;8.80;99.90;;;;;;5069037;28;20207;-72
2023/04/19 03:38:02;;;;;;;26.80;16.00;;;8.80;99.90;;;;;;5068908;28;20513;-72
2023/04/19 03:40:29;;;;;;;23.53;15.47;;;8.70;99.90;;;;;;5068580;28;20437;-72
2023/04/19 03:42:55;;;;;;;22.90;16.13;;;8.80;99.90;;;;;;5068553;28;20207;-73
2023/04/19 03:45:21;;;;;;;25.80;16.27;;;8.70;99.90;;;;;;5067419;28;20435;-72
2023/04/19 03:47:46;;;;;;;25.70;15.80;;;8.70;99.90;;;;;;5068587;28;20203;-72
2023/04/19 03:50:12;;;;;;;23.00;16.40;;;8.70;99.90;;;;;;5068545;28;20554;-72
2023/04/19 03:52:38;;;;;;;19.90;15.13;;;8.70;99.90;;;;;;5071856;28;20183;-72
2023/04/19 03:55:04;;;;;;;23.20;16.13;;;8.80;99.90;;;;;;5071671;28;20202;-72
2023/04/19 03:57:29;;;;;;;23.90;16.00;;;8.80;99.90;;;;;;5071718;28;20186;-72
2023/04/19 03:59:55;;;;;;;21.47;15.73;;;8.80;99.90;;;;;;5072938;28;20423;-72
2023/04/19 04:02:21;;;;;;;25.83;15.47;;;8.80;99.90;;;;;;5072901;28;20211;-72
2023/04/19 04:04:51;;;;;;;23.57;16.63;;;8.80;99.90;;;;;;5072728;28;20229;-72
2023/04/19 04:07:17;;;;;;;23.93;16.00;;;8.80;99.90;;;;;;5072729;28;20179;-72
2023/04/19 04:09:43;;;;;;;24.33;16.17;;;8.80;99.90;;;;;;5054130;28;20457;-72
2023/04/19 04:12:11;;;;;;;25.00;16.00;;;8.80;99.90;;;;;;5072076;28;20261;-72
2023/04/19 04:14:37;;;;;;;23.47;15.70;;;8.80;99.90;;;;;;5070720;28;20844;-72
2023/04/19 04:17:02;;;;;;;25.37;16.10;;;8.80;99.90;;;;;;5070422;28;20464;-72
2023/04/19 04:19:28;;;;;;;24.70;17.07;;;8.80;99.90;;;;;;5072032;28;20223;-73
2023/04/19 04:21:53;;;;;;;25.30;17.40;;;8.80;99.90;;;;;;5070490;28;20195;-72
2023/04/19 04:24:21;;;;;;;22.70;16.03;;;8.70;99.90;;;;;;5072180;28;20293;-71
2023/04/19 04:26:48;;;;;;;30.90;18.20;;;8.70;99.90;;;;;;5070972;28;20214;-73
2023/04/19 04:29:14;;;;;;;22.80;15.63;;;8.70;99.90;;;;;;5072188;28;20468;-73
2023/04/19 04:31:40;;;;;;;22.30;15.77;;;8.70;99.90;;;;;;5071177;28;20429;-73
2023/04/19 04:34:08;;;;;;;26.90;16.03;;;8.60;99.90;;;;;;5074811;28;20448;-71
2023/04/19 04:36:35;;;;;;;20.20;15.20;;;8.70;99.90;;;;;;5072510;28;20176;-73
2023/04/19 04:39:01;;;;;;;23.10;15.40;;;8.60;99.90;;;;;;5072244;28;20430;-73
2023/04/19 04:41:26;;;;;;;28.10;16.10;;;8.70;99.90;;;;;;5072729;28;20439;-72
2023/04/19 04:43:52;;;;;;;26.03;17.07;;;8.60;99.90;;;;;;5087673;28;20964;-73
2023/04/19 04:46:18;;;;;;;23.93;17.73;;;8.60;99.90;;;;;;5071987;28;20183;-73
2023/04/19 04:48:43;;;;;;;29.03;17.33;;;8.60;99.90;;;;;;5070716;28;20286;-72
2023/04/19 04:51:09;;;;;;;25.97;16.60;;;8.60;99.90;;;;;;5071496;28;20215;-72
2023/04/19 04:53:35;;;;;;;25.60;17.73;;;8.60;99.90;;;;;;5071452;28;20202;-72
2023/04/19 04:56:00;;;;;;;23.60;17.40;;;8.60;99.90;;;;;;5071466;28;20420;-72
2023/04/19 04:58:26;;;;;;;29.70;18.57;;;8.60;99.90;;;;;;5071453;28;20186;-73
2023/04/19 05:00:51;;;;;;;26.57;18.53;;;8.60;99.90;;;;;;5069826;28;20215;-72
2023/04/19 05:03:17;;;;;;;31.40;19.23;;;8.60;99.90;;;;;;5069727;28;20581;-73
2023/04/19 05:05:43;;;;;;;30.47;17.73;;;8.60;99.90;;;;;;5070980;28;20198;-73
2023/04/19 05:08:08;;;;;;;28.90;19.53;;;8.60;99.90;;;;;;5071220;28;20187;-72
2023/04/19 05:10:34;;;;;;;28.17;19.07;;;8.60;99.90;;;;;;5070817;28;20826;-72
2023/04/19 05:13:00;;;;;;;26.77;18.87;;;8.70;99.90;;;;;;5069526;28;20674;-71
2023/04/19 05:15:26;;;;;;;27.53;18.23;;;8.60;99.90;;;;;;5069272;28;20428;-72
2023/04/19 05:17:51;;;;;;;30.83;17.10;;;8.70;99.90;;;;;;5069447;28;20498;-72
2023/04/19 05:20:17;;;;;;;28.27;19.40;;;8.70;99.90;;;;;;5052624;28;20191;-72
2023/04/19 05:22:42;;;;;;;25.47;18.13;;;8.70;99.90;;;;;;5069416;28;20281;-72
2023/04/19 05:25:09;;;;;;;28.97;18.57;;;8.80;99.90;;;;;;5069196;28;21013;-71
2023/04/19 05:27:35;;;;;;;25.03;18.27;;;8.80;99.90;;;;;;5070797;28;20228;-72
2023/04/19 05:30:00;;;;;;;27.80;17.53;;;8.80;99.90;;;;;;5070608;28;20550;-73
2023/04/19 05:32:28;;;;;;;28.97;17.30;;;8.90;99.90;;;;;;5070516;28;20669;-72
2023/04/19 05:34:54;;;;;;;26.30;17.80;;;8.90;99.90;;;;;;5070450;28;20203;-72
2023/04/19 05:37:19;;;;;;;23.70;16.60;;;8.90;99.90;;;;;;5069102;28;20429;-72
2023/04/19 05:39:45;;;;;;;26.20;18.03;;;9.10;99.90;;;;;;5070352;28;20211;-73
2023/04/19 05:42:10;;;;;;;27.40;16.43;;;9.00;99.90;;;;;;5068957;28;20194;-72
2023/04/19 05:44:36;;;;;;;25.40;16.03;;;9.10;99.90;;;;;;5069129;28;20314;-72
2023/04/19 05:47:02;;;;;;;29.50;18.13;;;9.20;99.90;;;;;;5070460;28;20187;-73
2023/04/19 05:49:27;;;;;;;28.43;18.20;;;9.20;99.90;;;;;;5068705;28;20667;-72
2023/04/19 05:51:54;;;;;;;25.03;16.90;;;9.30;99.90;;;;;;5070320;28;20186;-72
2023/04/19 05:54:19;;;;;;;26.27;17.77;;;9.40;99.90;;;;;;5068840;28;20210;-72
2023/04/19 05:56:45;;;;;;;26.23;18.10;;;9.50;99.90;;;;;;5070187;28;20430;-72
2023/04/19 05:59:12;;;;;;;23.97;17.37;;;9.50;99.90;;;;;;5070267;28;20198;-73
2023/04/19 06:01:38;;;;;;;23.57;18.00;;;9.60;99.90;;;;;;5070171;28;20202;-73
2023/04/19 06:04:04;;;;;;;26.27;17.37;;;9.50;99.90;;;;;;5051646;28;20542;-72
2023/04/19 06:06:29;;;;;;;33.43;16.67;;;9.50;99.90;;;;;;5068380;28;20554;-71
2023/04/19 06:08:55;;;;;;;28.67;18.00;;;9.60;99.90;;;;;;5070003;28;20279;-72
2023/04/19 06:11:21;;;;;;;22.77;16.50;;;9.50;99.90;;;;;;5070131;28;20179;-72
2023/04/19 06:13:47;;;;;;;26.43;17.60;;;9.40;99.90;;;;;;5068071;28;20293;-71
2023/04/19 06:16:13;;;;;;;23.33;15.97;;;9.40;99.90;;;;;;5069676;28;20567;-72
2023/04/19 06:18:38;;;;;;;28.40;19.17;;;9.40;99.90;;;;;;5069667;28;20183;-71
2023/04/19 06:21:05;;;;;;;32.30;18.00;;;9.50;99.90;;;;;;5068279;28;20288;-71
2023/04/19 06:23:30;;;;;;;22.47;16.13;;;9.40;99.90;;;;;;5068278;28;20804;-72
2023/04/19 06:25:56;;;;;;;29.43;17.60;;;9.40;99.90;;;;;;5069492;28;20456;-72
2023/04/19 06:28:21;;;;;;;30.07;19.50;;;9.30;99.90;;;;;;5068116;28;20819;-73
2023/04/19 06:30:47;;;;;;;26.10;17.40;;;9.30;99.90;;;;;;5069302;28;20234;-72
2023/04/19 06:33:12;;;;;;;24.60;18.07;;;9.30;99.90;;;;;;5068134;28;20203;-72
2023/04/19 06:35:38;;;;;;;26.43;16.90;;;9.30;99.90;;;;;;5069320;28;20634;-71
2023/04/19 06:38:04;;;;;;;35.07;17.47;;;9.30;99.90;;;;;;5067835;28;20179;-72
2023/04/19 06:40:29;;;;;;;24.23;17.23;;;9.30;99.90;;;;;;5067639;28;20210;-72
2023/04/19 06:42:55;;;;;;;24.37;17.00;;;9.40;99.90;;;;;;5067988;28;20288;-72
2023/04/19 06:45:21;;;;;;;22.87;16.07;;;9.40;99.90;;;;;;5067924;28;20191;-72
2023/04/19 06:47:46;;;;;;;23.60;17.67;;;9.40;99.90;;;;;;5069042;28;20675;-72
2023/04/19 06:50:12;;;;;;;21.90;16.20;;;9.40;99.90;;;;;;5067401;28;20476;-72
2023/04/19 06:52:38;;;;;;;21.60;16.20;;;9.50;99.90;;;;;;5068878;28;20417;-71
2023/04/19 06:55:08;;;;;;;29.53;19.00;;;9.50;99.90;;;;;;5067425;28;20183;-72
2023/04/19 06:57:34;;;;;;;25.60;18.13;;;9.60;99.90;;;;;;5068788;28;20448;-72
2023/04/19 06:59:59;;;;;;;22.50;16.60;;;9.60;99.90;;;;;;5068762;28;20801;-73
2023/04/19 07:02:25;;;;;;;24.90;16.70;;;9.60;99.90;;;;;;5068756;28;20195;-72
2023/04/19 07:04:51;;;;;;;26.43;16.70;;;9.70;99.90;;;;;;5068902;28;20751;-73
2023/04/19 07:07:16;;;;;;;32.93;16.90;;;9.70;99.90;;;;;;5067461;28;20191;-72
2023/04/19 07:09:42;;;;;;;26.63;16.93;;;9.70;99.90;;;;;;5067205;28;21002;-72
2023/04/19 07:12:08;;;;;;;23.43;15.87;;;9.80;99.90;;;;;;5083972;28;20661;-71
2023/04/19 07:14:33;;;;;;;26.27;15.63;;;9.80;99.90;;;;;;5068671;28;20295;-71
2023/04/19 07:16:59;;;;;;;23.33;15.83;;;9.80;99.90;;;;;;5068543;28;20187;-73
2023/04/19 07:19:25;;;;;;;26.23;17.10;;;9.70;99.90;;;;;;5068619;28;20184;-72
2023/04/19 07:21:50;;;;;;;22.13;15.60;;;9.70;99.90;;;;;;5068608;28;20844;-73
2023/04/19 07:24:16;;;;;;;27.40;15.10;;;9.70;99.90;;;;;;5067158;28;20215;-73
2023/04/19 07:26:42;;;;;;;25.27;16.60;;;9.70;99.90;;;;;;5067805;28;20191;-71
2023/04/19 07:29:08;;;;;;;20.63;15.30;;;9.70;99.90;;;;;;5068656;28;20214;-72
2023/04/19 07:31:33;;;;;;;24.07;15.90;;;9.70;99.90;;;;;;5067250;28;20784;-72
2023/04/19 07:33:59;;;;;;;23.10;14.97;;;9.80;99.90;;;;;;5068468;28;20199;-72
2023/04/19 07:36:25;;;;;;;21.63;15.80;;;9.90;99.90;;;;;;5068720;28;20596;-71
2023/04/19 07:38:51;;;;;;;19.60;14.70;;;9.90;99.90;;;;;;5067472;28;20460;-72
2023/04/19 07:41:17;;;;;;;24.53;14.97;;;9.90;99.90;;;;;;5067480;28;20200;-72
2023/04/19 07:43:42;;;;;;;20.70;14.87;;;10.00;99.90;;;;;;5068838;28;20778;-72
2023/04/19 07:46:10;;;;;;;20.90;14.67;;;10.10;99.90;;;;;;5067494;28;20421;-70
2023/04/19 07:48:36;;;;;;;23.47;15.40;;;10.20;99.90;;;;;;5069010;28;20190;-72
2023/04/19 07:51:15;;;;;;;24.97;14.83;;;10.20;99.90;;;;;;5068986;28;20885;-71
2023/04/19 07:53:42;;;;;;;22.67;14.27;;;10.30;99.90;;;;;;5068874;28;20441;-71
2023/04/19 07:56:08;;;;;;;22.30;14.90;;;10.30;99.90;;;;;;5068653;28;20447;-71
2023/04/19 07:58:40;;;;;;;19.60;13.17;;;10.40;99.90;;;;;;5068792;28;20421;-72
2023/04/19 08:01:06;;;;;;;19.67;13.60;;;10.50;99.90;;;;;;5068774;28;20421;-71
2023/04/19 08:03:36;;;;;;;19.73;13.83;;;10.50;99.90;;;;;;5067196;28;20445;-71
2023/04/19 08:06:04;;;;;;;18.20;13.93;;;10.60;99.90;;;;;;5083967;28;20952;-72
2023/04/19 08:08:30;;;;;;;17.40;13.30;;;10.70;99.90;;;;;;5068395;28;20949;-71
2023/04/19 08:10:56;;;;;;;21.40;14.27;;;10.90;99.90;;;;;;5067049;28;20921;-71
2023/04/19 08:13:21;;;;;;;19.43;13.20;;;10.90;99.90;;;;;;5068065;28;20517;-71
2023/04/19 08:15:47;;;;;;;17.80;13.40;;;11.10;99.90;;;;;;5068210;28;20672;-71
2023/04/19 08:18:13;;;;;;;21.23;13.70;;;11.20;99.90;;;;;;5066673;28;20198;-71
2023/04/19 08:20:41;;;;;;;19.70;13.03;;;11.20;99.90;;;;;;5066840;28;20434;-71
2023/04/19 08:23:07;;;;;;;18.00;13.00;;;11.10;99.90;;;;;;5067990;28;20207;-70
2023/04/19 08:25:33;;;;;;;19.50;13.40;;;11.20;99.90;;;;;;5068228;28;20794;-72
2023/04/19 08:27:59;;;;;;;21.53;13.43;;;11.10;99.90;;;;;;5066920;28;20426;-71
2023/04/19 08:30:25;;;;;;;21.60;13.20;;;11.00;99.90;;;;;;5067935;28;20543;-70
2023/04/19 08:32:50;;;;;;;16.47;12.07;;;11.10;99.90;;;;;;5066427;28;20266;-70
2023/04/19 08:35:16;;;;;;;15.73;11.87;;;11.00;99.90;;;;;;5067854;28;20918;-72
2023/04/19 08:37:42;;;;;;;20.27;13.20;;;11.00;99.90;;;;;;5068059;28;20194;-73
2023/04/19 08:40:09;;;;;;;16.50;13.10;;;11.00;99.90;;;;;;5071429;28;20203;-73
2023/04/19 08:42:34;;;;;;;15.77;11.50;;;11.00;99.90;;;;;;5071365;28;20266;-71
2023/04/19 08:45:07;;;;;;;17.00;12.10;;;11.10;99.90;;;;;;5070037;28;20426;-72
2023/04/19 08:47:33;;;;;;;17.53;13.67;;;11.20;99.90;;;;;;5071485;28;20189;-72
2023/04/19 08:50:00;;;;;;;17.77;13.80;;;11.10;99.90;;;;;;5071459;28;20964;-70
2023/04/19 08:52:26;;;;;;;17.37;11.50;;;11.00;99.90;;;;;;5071421;28;20419;-73
2023/04/19 08:54:54;;;;;;;19.70;12.50;;;11.00;99.90;;;;;;5069806;28;20551;-73
2023/04/19 08:57:20;;;;;;;19.60;13.60;;;11.00;99.90;;;;;;5071326;28;20524;-72
2023/04/19 08:59:49;;;;;;;20.67;12.90;;;11.00;99.90;;;;;;5069937;28;20428;-71
2023/04/19 09:02:15;;;;;;;22.77;13.17;;;11.10;99.90;;;;;;5071153;28;20424;-72
2023/04/19 09:04:41;;;;;;;16.73;12.30;;;11.20;99.90;;;;;;5070987;28;20440;-72
2023/04/19 09:07:09;;;;;;;19.13;12.00;;;11.30;99.90;;;;;;5070896;28;20654;-73
2023/04/19 09:09:35;;;;;;;17.77;11.53;;;11.40;99.90;;;;;;5070892;28;20289;-72
2023/04/19 09:12:01;;;;;;;19.63;12.70;;;11.50;99.90;;;;;;5070798;28;20427;-72
2023/04/19 09:14:27;;;;;;;17.43;12.40;;;11.60;99.90;;;;;;5070689;28;20956;-73
2023/04/19 09:17:09;;;;;;;14.43;10.77;;;11.70;99.90;;;;;;5069374;28;20622;-72
2023/04/19 09:19:46;;;;;;;18.80;11.80;;;11.80;99.90;;;;;;5070912;28;20414;-72
2023/04/19 09:22:13;;;;;;;16.00;11.80;;;11.90;99.90;;;;;;5070826;28;20430;-72
2023/04/19 09:24:39;;;;;;;17.73;12.70;;;11.80;99.90;;;;;;5071168;28;20497;-72
2023/04/19 09:27:05;;;;;;;17.93;12.40;;;11.90;99.90;;;;;;5071332;28;20859;-73
2023/04/19 09:29:30;;;;;;;13.80;10.87;;;11.80;99.90;;;;;;5071218;28;20500;-73
2023/04/19 09:31:58;;;;;;;15.13;11.50;;;11.90;99.90;;;;;;5069972;28;20181;-70
2023/04/19 09:34:24;;;;;;;14.83;11.07;;;11.90;99.90;;;;;;5053125;28;20200;-72
2023/04/19 09:36:50;;;;;;;14.03;10.73;;;12.00;99.90;;;;;;5069641;28;20433;-72
2023/04/19 09:39:30;;;;;;;15.67;10.20;;;12.00;99.90;;;;;;5069486;28;20866;-72
2023/04/19 09:41:57;;;;;;;15.20;11.57;;;12.10;99.90;;;;;;5071109;28;20722;-72
2023/04/19 09:44:22;;;;;;;14.77;9.90;;;12.20;99.90;;;;;;5069615;28;20976;-71
2023/04/19 09:46:51;;;;;;;14.63;10.80;;;12.30;99.90;;;;;;5069486;28;20644;-71
2023/04/19 09:49:22;;;;;;;14.77;10.07;;;12.40;99.90;;;;;;5069796;28;20570;-71
2023/04/19 09:51:49;;;;;;;15.80;11.57;;;12.50;99.90;;;;;;5071145;28;20407;-71
2023/04/19 09:54:17;;;;;;;16.00;11.60;;;12.50;99.90;;;;;;5070566;28;20430;-71
2023/04/19 09:56:43;;;;;;;12.97;10.70;;;12.60;99.90;;;;;;5070470;28;20927;-71
2023/04/19 09:59:09;;;;;;;14.90;10.33;;;12.80;99.90;;;;;;5070359;28;20419;-73
2023/04/19 10:01:51;;;;;;;13.70;10.73;;;12.90;99.90;;;;;;5070289;28;20408;-72
2023/04/19 10:04:20;;;;;;;14.50;10.90;;;13.10;99.90;;;;;;5070527;28;20913;-72
2023/04/19 10:06:50;;;;;;;12.27;10.20;;;13.10;99.90;;;;;;5070456;28;20444;-73
2023/04/19 10:09:21;;;;;;;14.33;9.10;;;12.90;99.90;;;;;;5069064;28;20418;-72
2023/04/19 10:11:58;;;;;;;13.20;10.30;;;13.00;99.90;;;;;;5070097;28;20420;-73
2023/04/19 10:14:24;;;;;;;11.80;10.30;;;12.90;99.90;;;;;;5070247;28;20440;-71
2023/04/19 10:16:50;;;;;;;19.07;10.80;;;12.80;99.90;;;;;;5068660;28;20502;-72
2023/04/19 10:19:19;;;;;;;15.40;11.50;;;12.80;99.90;;;;;;5070093;28;20412;-72
2023/04/19 10:21:47;;;;;;;14.20;10.00;;;12.70;99.90;;;;;;5069813;28;20411;-72
2023/04/19 10:24:14;;;;;;;15.83;10.30;;;12.70;99.90;;;;;;5069669;28;21285;-71
2023/04/19 10:27:11;;;;;;;15.00;10.10;;;12.70;99.90;;;;;;5069724;28;20465;-72
2023/04/19 10:30:04;;;;;;;11.13;9.70;;;12.60;99.90;;;;;;5069527;28;20465;-72
2023/04/19 10:32:38;;;;;;;13.50;10.87;;;12.60;99.90;;;;;;5068164;28;20408;-72
2023/04/19 10:35:20;;;;;;;17.50;10.20;;;12.60;99.90;;;;;;5067998;28;20782;-71
2023/04/19 10:38:01;;;;;;;15.07;10.00;;;12.60;99.90;;;;;;5069895;28;20530;-73
2023/04/19 10:40:53;;;;;;;14.70;9.70;;;12.60;99.90;;;;;;5070581;28;20550;-72
2023/04/19 10:43:20;;;;;;;14.00;8.87;;;12.50;99.90;;;;;;5070955;28;20567;-72
2023/04/19 10:45:46;;;;;;;13.67;10.27;;;12.60;99.90;;;;;;5085635;28;20455;-73
2023/04/19 10:48:29;;;;;;;14.67;9.23;;;12.60;99.90;;;;;;5070232;28;20442;-72
2023/04/19 10:51:09;;;;;;;14.10;9.70;;;12.60;99.90;;;;;;5069233;28;20977;-72
2023/04/19 10:53:54;;;;;;;13.27;9.27;;;12.70;99.90;;;;;;5067484;28;20441;-72
2023/04/19 10:56:41;;;;;;;17.83;9.10;;;12.80;99.90;;;;;;5069196;28;20445;-72
2023/04/19 10:59:06;;;;;;;17.53;9.33;;;12.80;99.90;;;;;;5069149;28;21076;-72
2023/04/19 11:01:38;;;;;;;13.90;9.63;;;13.10;99.90;;;;;;5068846;28;20434;-72
2023/04/19 11:04:05;;;;;;;11.30;9.03;;;13.80;99.90;;;;;;5068064;28;20448;-72
2023/04/19 11:06:31;;;;;;;11.97;8.87;;;14.20;99.90;;;;;;5067576;28;20415;-73
2023/04/19 11:08:57;;;;;;;12.10;8.10;;;14.60;99.90;;;;;;5068869;28;20468;-73
2023/04/19 11:11:24;;;;;;;9.90;7.87;;;14.70;99.90;;;;;;5068983;28;20472;-72
2023/04/19 11:13:50;;;;;;;10.00;8.33;;;14.70;99.90;;;;;;5068916;28;20191;-72
2023/04/19 11:16:16;;;;;;;11.47;8.30;;;14.70;99.90;;;;;;5068880;28;20427;-72
2023/04/19 11:18:43;;;;;;;11.83;8.47;;;14.60;99.90;;;;;;5068859;28;20416;-72
2023/04/19 11:21:13;;;;;;;11.40;8.33;;;14.60;99.90;;;;;;5068573;28;20174;-72
2023/04/19 11:23:39;;;;;;;14.00;8.33;;;14.40;99.90;;;;;;5068445;28;20451;-72
2023/04/19 11:26:10;;;;;;;10.97;8.53;;;14.10;99.90;;;;;;5067415;28;20433;-72
2023/04/19 11:28:36;;;;;;;12.93;9.50;;;14.10;99.90;;;;;;5067214;28;20434;-72
2023/04/19 11:31:03;;;;;;;14.73;8.80;;;13.70;99.90;;;;;;5068410;28;20467;-73
2023/04/19 11:33:33;;;;;;;12.80;8.90;;;13.50;99.90;;;;;;5068697;28;20448;-72
2023/04/19 11:35:58;;;;;;;12.37;9.00;;;13.40;99.90;;;;;;5067094;28;21168;-72
2023/04/19 11:38:29;;;;;;;11.60;8.97;;;13.30;99.90;;;;;;5068497;28;20421;-72
2023/04/19 11:41:02;;;;;;;11.13;9.23;;;13.10;99.90;;;;;;5068515;28;20202;-72
2023/04/19 11:43:32;;;;;;;12.30;9.63;;;12.90;99.90;;;;;;5068380;28;20441;-72
2023/04/19 11:46:05;;;;;;;11.07;8.60;;;12.70;99.90;;;;;;5068517;28;20529;-72
2023/04/19 11:48:30;;;;;;;11.90;8.80;;;12.60;99.90;;;;;;5068465;28;20473;-72
2023/04/19 11:50:58;;;;;;;13.50;9.33;;;12.60;99.90;;;;;;5068378;28;20853;-72
2023/04/19 11:53:25;;;;;;;11.77;9.10;;;12.40;99.90;;;;;;5068254;28;20590;-72
2023/04/19 11:56:10;;;;;;;13.20;8.90;;;12.30;99.90;;;;;;5066826;28;20424;-72
2023/04/19 11:58:44;;;;;;;12.30;10.00;;;12.30;99.90;;;;;;5068459;28;20901;-72
2023/04/19 12:01:12;;;;;;;14.30;9.33;;;12.20;99.90;;;;;;5066681;28;20468;-72
2023/04/19 12:03:46;;;;;;;12.43;9.70;;;12.20;99.90;;;;;;5068045;28;20463;-72
2023/04/19 12:06:21;;;;;;;9.23;8.23;;;12.10;99.90;;;;;;5083440;28;20435;-72
2023/04/19 12:08:49;;;;;;;14.50;10.30;;;12.10;99.90;;;;;;5068067;28;20434;-72
2023/04/19 12:11:17;;;;;;;15.03;9.77;;;12.20;99.90;;;;;;5066885;28;20632;-72
2023/04/19 12:13:43;;;;;;;12.37;10.03;;;12.10;99.90;;;;;;5069783;28;20453;-72
2023/04/19 12:16:10;;;;;;;14.57;8.47;;;12.10;99.90;;;;;;5071957;28;20778;-72
2023/04/19 12:18:52;;;;;;;12.03;9.73;;;12.10;99.90;;;;;;5072060;28;20285;-71
2023/04/19 12:21:26;;;;;;;15.00;10.40;;;12.10;99.90;;;;;;5071936;28;20977;-72
2023/04/19 12:23:59;;;;;;;14.80;8.70;;;12.00;99.90;;;;;;5071826;28;20435;-72
2023/04/19 12:26:27;;;;;;;11.67;9.73;;;11.90;99.90;;;;;;5071715;28;20454;-72
2023/04/19 12:28:53;;;;;;;13.77;9.63;;;11.80;99.90;;;;;;5053696;28;20459;-72
2023/04/19 12:31:19;;;;;;;14.10;11.50;;;11.80;99.90;;;;;;5070223;28;20522;-72
2023/04/19 12:33:45;;;;;;;14.30;9.60;;;11.80;99.90;;;;;;5071647;28;20464;-72
2023/04/19 12:36:11;;;;;;;13.17;9.43;;;11.80;99.90;;;;;;5071616;28;20420;-72